Time;durP1;ratioP1;P1;durP2;ratioP2;P2;SDS_P1;SDS_P2;PMS_P1;PMS_P2;Temp;Humidity;BMP_temperature;BMP_pressure;BME280_temperature;BME280_humidity;BME280_pressure;Samples;Min_cycle;Max_cycle;Signal;HPM_P1;HPM_P2
2023/04/21 00:00:58;;;;;;;;;43.60;39.00;;;;;;;;5238549;28;8803;-68
2023/04/21 00:03:49;;;;;;;;;47.80;40.20;;;;;;;;5245757;28;8773;-68
2023/04/21 00:06:21;;;;;;;;;32.00;30.40;;;;;;;;5245468;28;8815;-68
2023/04/21 00:08:52;;;;;;;;;58.20;48.80;;;;;;;;5244325;28;8787;-68
2023/04/21 00:11:23;;;;;;;;;53.40;46.40;;;;;;;;5244508;28;8817;-67
2023/04/21 00:13:55;;;;;;;;;46.50;40.50;;;;;;;;5244195;28;8929;-67
2023/04/21 00:16:26;;;;;;;;;33.80;32.60;;;;;;;;5222333;28;11567;-68
2023/04/21 00:18:57;;;;;;;;;41.20;38.60;;;;;;;;5228339;28;9496;-68
2023/04/21 00:21:28;;;;;;;;;37.60;36.00;;;;;;;;5229469;28;8786;-68
2023/04/21 00:23:59;;;;;;;;;39.25;36.50;;;;;;;;5228451;28;9543;-68
2023/04/21 00:26:30;;;;;;;;;41.40;38.00;;;;;;;;5210366;28;11594;-68
2023/04/21 00:29:01;;;;;;;;;33.40;33.40;;;;;;;;5228267;28;8798;-68
2023/04/21 00:31:35;;;;;;;;;38.60;36.20;;;;;;;;5227015;28;8778;-68
2023/04/21 00:34:05;;;;;;;;;40.80;38.20;;;;;;;;5210393;28;8948;-68
2023/04/21 00:36:36;;;;;;;;;40.00;38.00;;;;;;;;5219692;28;8956;-68
2023/04/21 00:39:08;;;;;;;;;30.60;29.80;;;;;;;;5210403;28;8801;-68
2023/04/21 00:41:57;;;;;;;;;16.60;16.60;;;;;;;;5212954;28;8910;-67
2023/04/21 00:44:28;;;;;;;;;13.50;12.50;;;;;;;;5209990;28;8782;-68
2023/04/21 00:46:59;;;;;;;;;13.00;13.00;;;;;;;;5243772;28;11480;-68
2023/04/21 00:49:30;;;;;;;;;20.20;20.20;;;;;;;;5210881;28;8807;-68
2023/04/21 00:52:04;;;;;;;;;32.60;32.40;;;;;;;;5227112;28;8808;-68
2023/04/21 00:54:35;;;;;;;;;38.40;36.00;;;;;;;;5210022;28;8814;-68
2023/04/21 00:57:06;;;;;;;;;24.00;24.00;;;;;;;;5209875;28;8786;-68
2023/04/21 00:59:37;;;;;;;;;29.40;29.00;;;;;;;;5210011;28;8786;-68
2023/04/21 01:02:08;;;;;;;;;26.60;26.20;;;;;;;;5210410;28;8804;-68
2023/04/21 01:04:40;;;;;;;;;28.00;27.00;;;;;;;;5227602;28;8789;-68
2023/04/21 01:07:11;;;;;;;;;28.40;27.60;;;;;;;;5227876;28;8834;-68
2023/04/21 01:09:42;;;;;;;;;25.60;24.40;;;;;;;;5227869;28;8809;-68
2023/04/21 01:12:14;;;;;;;;;26.40;26.40;;;;;;;;5209787;28;8766;-68
2023/04/21 01:14:45;;;;;;;;;23.40;21.80;;;;;;;;5210063;28;8790;-68
2023/04/21 01:17:17;;;;;;;;;23.00;22.60;;;;;;;;5221808;28;8774;-69
2023/04/21 01:19:55;;;;;;;;;30.20;30.20;;;;;;;;5226711;28;8805;-69
2023/04/21 01:22:27;;;;;;;;;28.00;28.00;;;;;;;;5209685;28;9613;-69
2023/04/21 01:24:58;;;;;;;;;28.80;28.60;;;;;;;;5225932;28;8809;-68
2023/04/21 01:27:29;;;;;;;;;29.50;29.25;;;;;;;;5192939;28;8762;-68
2023/04/21 01:30:00;;;;;;;;;31.25;29.25;;;;;;;;5225682;28;8790;-68
2023/04/21 01:32:49;;;;;;;;;25.60;25.60;;;;;;;;5227125;28;11496;-68
2023/04/21 01:35:20;;;;;;;;;33.60;32.40;;;;;;;;5193786;28;8840;-68
2023/04/21 01:37:51;;;;;;;;;25.00;23.40;;;;;;;;5209191;28;8803;-68
2023/04/21 01:40:23;;;;;;;;;30.00;29.80;;;;;;;;5226784;28;8925;-68
2023/04/21 01:42:54;;;;;;;;;29.60;29.40;;;;;;;;5225652;28;8928;-68
2023/04/21 01:45:26;;;;;;;;;35.20;34.80;;;;;;;;5225728;28;9681;-68
2023/04/21 01:47:58;;;;;;;;;29.20;28.20;;;;;;;;5208977;28;8821;-68
2023/04/21 01:50:30;;;;;;;;;36.60;35.20;;;;;;;;5208773;28;8805;-68
2023/04/21 01:53:01;;;;;;;;;23.80;23.80;;;;;;;;5192672;28;8786;-68
2023/04/21 01:55:32;;;;;;;;;30.80;29.80;;;;;;;;5234462;28;8827;-68
2023/04/21 01:58:03;;;;;;;;;26.75;24.75;;;;;;;;5229666;28;9530;-69
2023/04/21 02:00:34;;;;;;;;;31.80;30.00;;;;;;;;5224433;28;9431;-69
2023/04/21 02:03:05;;;;;;;;;42.40;39.60;;;;;;;;5225151;28;8912;-68
2023/04/21 02:05:36;;;;;;;;;72.00;55.60;;;;;;;;5226474;28;8814;-68
2023/04/21 02:08:07;;;;;;;;;57.00;46.25;;;;;;;;5225137;28;8782;-68
2023/04/21 02:10:38;;;;;;;;;60.00;47.80;;;;;;;;5226239;28;11523;-69
2023/04/21 02:13:10;;;;;;;;;80.60;62.40;;;;;;;;5208449;28;8786;-68
2023/04/21 02:15:41;;;;;;;;;68.40;56.00;;;;;;;;5245402;28;8810;-68
2023/04/21 02:18:13;;;;;;;;;56.00;47.00;;;;;;;;5245528;28;8890;-68
2023/04/21 02:21:03;;;;;;;;;52.60;45.00;;;;;;;;5231717;28;8825;-68
2023/04/21 02:23:34;;;;;;;;;59.60;45.80;;;;;;;;5228968;28;8791;-68
2023/04/21 02:26:05;;;;;;;;;60.00;48.50;;;;;;;;5228734;28;8899;-68
2023/04/21 02:28:36;;;;;;;;;53.20;45.20;;;;;;;;5243784;28;12265;-68
2023/04/21 02:31:07;;;;;;;;;60.00;50.25;;;;;;;;5241771;28;8898;-68
2023/04/21 02:33:38;;;;;;;;;57.80;48.20;;;;;;;;5221569;28;8814;-68
2023/04/21 02:36:27;;;;;;;;;63.40;50.20;;;;;;;;5225540;28;8809;-68
2023/04/21 02:39:03;;;;;;;;;62.00;49.60;;;;;;;;5208451;28;8796;-68
2023/04/21 02:41:34;;;;;;;;;63.00;47.80;;;;;;;;5223655;28;8936;-68
2023/04/21 02:44:06;;;;;;;;;54.60;46.80;;;;;;;;5225781;28;8807;-68
2023/04/21 02:46:40;;;;;;;;;56.80;47.80;;;;;;;;5224469;28;8813;-68
2023/04/21 02:49:11;;;;;;;;;53.20;45.00;;;;;;;;5225772;28;8820;-69
2023/04/21 02:51:42;;;;;;;;;53.20;45.60;;;;;;;;5224252;28;8785;-68
2023/04/21 02:54:14;;;;;;;;;49.20;42.40;;;;;;;;5240056;28;8865;-67
2023/04/21 02:56:45;;;;;;;;;51.00;42.80;;;;;;;;5207887;28;8825;-67
2023/04/21 02:59:17;;;;;;;;;46.20;40.40;;;;;;;;5207669;28;8854;-67
2023/04/21 03:01:48;;;;;;;;;45.20;40.80;;;;;;;;5227469;28;8787;-66
2023/04/21 03:04:19;;;;;;;;;37.80;36.00;;;;;;;;5245067;28;8918;-66
2023/04/21 03:06:51;;;;;;;;;32.40;31.20;;;;;;;;5228332;28;8810;-67
2023/04/21 03:09:22;;;;;;;;;34.20;33.80;;;;;;;;5209640;28;8812;-66
2023/04/21 03:11:53;;;;;;;;;29.75;29.75;;;;;;;;5224693;28;8921;-67
2023/04/21 03:14:24;;;;;;;;;45.80;40.60;;;;;;;;5224100;28;9492;-67
2023/04/21 03:16:55;;;;;;;;;64.80;52.40;;;;;;;;5225049;28;8810;-68
2023/04/21 03:19:26;;;;;;;;;71.20;57.40;;;;;;;;5211676;28;8892;-68
2023/04/21 03:22:15;;;;;;;;;60.60;51.60;;;;;;;;5242769;28;8821;-68
2023/04/21 03:24:46;;;;;;;;;57.20;49.00;;;;;;;;5223905;28;8822;-68
2023/04/21 03:27:18;;;;;;;;;61.80;51.20;;;;;;;;5191752;28;8797;-68
2023/04/21 03:30:15;;;;;;;;;66.40;54.80;;;;;;;;5224990;28;8813;-68
2023/04/21 03:32:46;;;;;;;;;54.40;47.00;;;;;;;;5224169;28;9038;-68
2023/04/21 03:35:18;;;;;;;;;60.60;50.80;;;;;;;;5210460;28;8787;-68
2023/04/21 03:37:49;;;;;;;;;54.00;45.80;;;;;;;;5243698;28;8789;-67
2023/04/21 03:40:19;;;;;;;;;54.25;45.50;;;;;;;;5223205;28;8821;-67
2023/04/21 03:42:52;;;;;;;;;55.80;47.40;;;;;;;;5207442;28;8862;-67
2023/04/21 03:45:23;;;;;;;;;34.20;32.60;;;;;;;;5223861;28;8785;-67
2023/04/21 03:47:55;;;;;;;;;29.60;29.60;;;;;;;;5245214;28;9454;-68
2023/04/21 03:50:26;;;;;;;;;35.60;35.00;;;;;;;;5244456;28;8779;-68
2023/04/21 03:52:58;;;;;;;;;21.60;21.40;;;;;;;;5246174;28;8813;-68
2023/04/21 03:55:29;;;;;;;;;23.00;22.00;;;;;;;;5232025;28;8811;-68
2023/04/21 03:58:00;;;;;;;;;16.00;15.80;;;;;;;;5248582;28;8783;-68
2023/04/21 04:00:31;;;;;;;;;20.40;20.40;;;;;;;;5249479;28;8805;-68
2023/04/21 04:03:02;;;;;;;;;27.80;27.20;;;;;;;;5249640;28;8789;-68
2023/04/21 04:05:37;;;;;;;;;32.60;31.80;;;;;;;;5249277;28;8964;-68
2023/04/21 04:08:08;;;;;;;;;15.40;15.20;;;;;;;;5225736;28;8828;-68
2023/04/21 04:10:39;;;;;;;;;11.80;11.80;;;;;;;;5211394;28;8789;-68
2023/04/21 04:13:10;;;;;;;;;16.40;16.40;;;;;;;;5215280;28;8794;-68
2023/04/21 04:15:41;;;;;;;;;15.60;14.60;;;;;;;;5240895;28;8805;-68
2023/04/21 04:18:12;;;;;;;;;10.40;10.00;;;;;;;;5228781;28;9636;-68
2023/04/21 04:20:43;;;;;;;;;13.00;13.00;;;;;;;;5227192;28;8923;-68
2023/04/21 04:23:14;;;;;;;;;17.80;17.80;;;;;;;;5210507;28;10450;-68
2023/04/21 04:25:46;;;;;;;;;14.80;14.80;;;;;;;;5211008;28;8843;-68
2023/04/21 04:28:17;;;;;;;;;6.00;6.00;;;;;;;;5227349;28;8786;-68
2023/04/21 04:30:49;;;;;;;;;11.20;11.20;;;;;;;;5237828;28;8783;-68
2023/04/21 04:33:20;;;;;;;;;13.00;13.00;;;;;;;;5247970;28;8778;-68
2023/04/21 04:35:51;;;;;;;;;10.00;10.00;;;;;;;;5247428;28;8787;-67
2023/04/21 04:38:27;;;;;;;;;10.00;10.00;;;;;;;;5221048;28;8809;-68
2023/04/21 04:41:00;;;;;;;;;7.80;7.80;;;;;;;;5227016;28;8773;-68
2023/04/21 04:43:41;;;;;;;;;7.00;7.00;;;;;;;;5210151;28;8838;-68
2023/04/21 04:46:12;;;;;;;;;32.40;32.40;;;;;;;;5226720;28;9548;-68
2023/04/21 04:48:43;;;;;;;;;12.60;12.20;;;;;;;;5213039;28;8821;-69
2023/04/21 04:51:15;;;;;;;;;11.40;11.40;;;;;;;;5244688;28;8849;-69
2023/04/21 04:53:46;;;;;;;;;7.00;7.00;;;;;;;;5245329;28;8811;-69
2023/04/21 04:56:17;;;;;;;;;7.80;7.80;;;;;;;;5228898;28;8795;-69
2023/04/21 04:59:07;;;;;;;;;7.80;7.80;;;;;;;;5245605;28;8794;-68
2023/04/21 05:01:39;;;;;;;;;9.40;9.40;;;;;;;;5228693;28;8791;-69
2023/04/21 05:04:29;;;;;;;;;10.60;10.20;;;;;;;;5242366;28;8838;-69
2023/04/21 05:07:00;;;;;;;;;6.80;6.20;;;;;;;;5245357;28;9542;-68
2023/04/21 05:09:31;;;;;;;;;11.00;11.00;;;;;;;;5238381;28;9562;-68
2023/04/21 05:12:02;;;;;;;;;7.20;7.20;;;;;;;;5224241;28;8790;-69
2023/04/21 05:14:33;;;;;;;;;18.00;17.60;;;;;;;;5224330;28;8789;-68
2023/04/21 05:17:04;;;;;;;;;36.00;33.40;;;;;;;;5207859;28;8839;-69
2023/04/21 05:19:38;;;;;;;;;20.00;19.60;;;;;;;;5224675;28;8790;-69
2023/04/21 05:22:28;;;;;;;;;19.60;19.60;;;;;;;;5225456;28;8765;-68
2023/04/21 05:24:59;;;;;;;;;15.40;15.40;;;;;;;;5256153;28;8805;-69
2023/04/21 05:27:30;;;;;;;;;17.00;17.00;;;;;;;;5224440;28;8800;-68
2023/04/21 05:30:01;;;;;;;;;18.80;18.00;;;;;;;;5239660;28;8782;-68
2023/04/21 05:32:36;;;;;;;;;20.80;19.60;;;;;;;;5245856;28;8923;-69
2023/04/21 05:35:07;;;;;;;;;18.80;18.80;;;;;;;;5245960;28;8810;-69
2023/04/21 05:37:38;;;;;;;;;20.20;20.20;;;;;;;;5211349;28;8779;-69
2023/04/21 05:40:09;;;;;;;;;26.80;26.80;;;;;;;;5244375;28;8897;-69
2023/04/21 05:42:59;;;;;;;;;24.40;24.40;;;;;;;;5230195;28;8771;-69
2023/04/21 05:45:30;;;;;;;;;32.20;31.00;;;;;;;;5239778;28;9894;-69
2023/04/21 05:48:19;;;;;;;;;36.00;33.00;;;;;;;;5218020;28;8783;-68
2023/04/21 05:50:51;;;;;;;;;24.40;24.40;;;;;;;;5213229;28;8802;-68
2023/04/21 05:53:26;;;;;;;;;20.80;20.80;;;;;;;;5229951;28;8794;-68
2023/04/21 05:55:57;;;;;;;;;20.60;19.60;;;;;;;;5229402;28;8787;-68
2023/04/21 05:58:28;;;;;;;;;29.80;29.80;;;;;;;;5245758;28;8808;-69
2023/04/21 06:00:59;;;;;;;;;41.40;37.00;;;;;;;;5245966;28;8790;-68
2023/04/21 06:03:30;;;;;;;;;32.60;31.60;;;;;;;;5221477;28;8785;-68
2023/04/21 06:06:20;;;;;;;;;21.60;21.40;;;;;;;;5225201;28;9567;-68
2023/04/21 06:09:10;;;;;;;;;38.60;34.40;;;;;;;;5225634;28;8777;-68
2023/04/21 06:11:41;;;;;;;;;28.00;26.00;;;;;;;;5226759;28;8785;-68
2023/04/21 06:14:13;;;;;;;;;16.00;15.60;;;;;;;;5208606;28;8782;-68
2023/04/21 06:16:44;;;;;;;;;8.80;8.40;;;;;;;;5208353;28;8798;-68
2023/04/21 06:19:15;;;;;;;;;9.20;9.20;;;;;;;;5229901;28;8783;-68
2023/04/21 06:21:46;;;;;;;;;11.00;11.00;;;;;;;;5245867;28;8771;-68
2023/04/21 06:24:24;;;;;;;;;8.40;8.40;;;;;;;;5245353;28;11622;-68
2023/04/21 06:26:55;;;;;;;;;5.00;5.00;;;;;;;;5228196;28;8818;-69
2023/04/21 06:29:27;;;;;;;;;12.80;12.20;;;;;;;;5245591;28;8830;-69
2023/04/21 06:31:58;;;;;;;;;5.33;5.33;;;;;;;;5245031;28;8791;-68
2023/04/21 06:34:29;;;;;;;;;3.00;3.00;;;;;;;;5228596;28;8798;-68
2023/04/21 06:37:00;;;;;;;;;2.75;2.75;;;;;;;;5245579;28;8817;-68
2023/04/21 06:39:31;;;;;;;;;2.25;2.00;;;;;;;;5212224;28;8813;-68
2023/04/21 06:42:02;;;;;;;;;11.60;11.20;;;;;;;;5226821;28;8785;-68
2023/04/21 06:44:33;;;;;;;;;2.50;2.50;;;;;;;;5245352;28;8813;-68
2023/04/21 06:47:22;;;;;;;;;2.75;2.75;;;;;;;;5236778;28;8825;-68
2023/04/21 06:49:53;;;;;;;;;53.00;39.60;;;;;;;;5208018;28;8797;-68
2023/04/21 06:52:25;;;;;;;;;7.00;7.00;;;;;;;;5224617;28;8804;-68
2023/04/21 06:54:56;;;;;;;;;6.25;6.25;;;;;;;;5224444;28;8813;-68
2023/04/21 06:57:27;;;;;;;;;5.33;5.33;;;;;;;;5224908;28;9521;-68
2023/04/21 06:59:58;;;;;;;;;4.25;4.25;;;;;;;;5217971;28;11525;-69
2023/04/21 07:02:29;;;;;;;;;3.25;3.25;;;;;;;;5207861;28;8778;-69
2023/04/21 07:05:18;;;;;;;;;4.50;4.50;;;;;;;;5240616;28;8809;-68
2023/04/21 07:07:49;;;;;;;;;3.50;3.50;;;;;;;;5207832;28;8898;-69
2023/04/21 07:10:20;;;;;;;;;48.60;41.60;;;;;;;;5207865;28;8781;-68
2023/04/21 07:12:51;;;;;;;;;10.25;10.25;;;;;;;;5224329;28;9571;-69
2023/04/21 07:15:22;;;;;;;;;5.00;5.00;;;;;;;;5208650;28;8802;-68
2023/04/21 07:17:54;;;;;;;;;4.25;4.25;;;;;;;;5225038;28;8762;-68
2023/04/21 07:20:25;;;;;;;;;5.75;5.75;;;;;;;;5222032;28;8785;-68
2023/04/21 07:22:56;;;;;;;;;7.00;7.00;;;;;;;;5225366;28;8840;-67
2023/04/21 07:25:27;;;;;;;;;7.75;7.75;;;;;;;;5224199;28;8829;-68
2023/04/21 07:27:58;;;;;;;;;8.33;8.00;;;;;;;;5226667;28;9528;-68
2023/04/21 07:30:30;;;;;;;;;5.00;5.00;;;;;;;;5229249;28;11435;-68
2023/04/21 07:33:01;;;;;;;;;24.60;24.60;;;;;;;;5211671;28;8777;-68
2023/04/21 07:35:32;;;;;;;;;7.25;6.75;;;;;;;;5229236;28;8821;-68
2023/04/21 07:38:03;;;;;;;;;3.25;3.25;;;;;;;;5232030;28;8827;-68
2023/04/21 07:40:34;;;;;;;;;3.50;3.50;;;;;;;;5215635;28;8787;-68
2023/04/21 07:43:05;;;;;;;;;4.25;4.25;;;;;;;;5248714;28;8885;-68
2023/04/21 07:45:36;;;;;;;;;4.00;4.00;;;;;;;;5241961;28;8817;-68
2023/04/21 07:48:07;;;;;;;;;3.00;3.00;;;;;;;;5229187;28;8817;-68
2023/04/21 07:51:00;;;;;;;;;4.00;4.00;;;;;;;;5228956;28;8789;-68
2023/04/21 07:53:31;;;;;;;;;4.00;4.00;;;;;;;;5231590;28;8783;-69
2023/04/21 07:56:21;;;;;;;;;4.25;4.25;;;;;;;;5246789;28;8802;-69
2023/04/21 07:58:52;;;;;;;;;4.00;4.00;;;;;;;;5229940;28;8783;-69
2023/04/21 08:01:23;;;;;;;;;3.50;3.50;;;;;;;;5235167;28;12223;-69
2023/04/21 08:03:54;;;;;;;;;5.00;5.00;;;;;;;;5244111;28;8791;-68
2023/04/21 08:06:26;;;;;;;;;5.67;5.33;;;;;;;;5246228;28;8951;-68
2023/04/21 08:09:16;;;;;;;;;4.25;4.25;;;;;;;;5232025;28;8807;-69
2023/04/21 08:11:47;;;;;;;;;3.25;3.25;;;;;;;;5239986;28;8915;-69
2023/04/21 08:14:18;;;;;;;;;1.00;1.00;;;;;;;;5236004;28;8805;-69
2023/04/21 08:16:49;;;;;;;;;3.00;3.00;;;;;;;;5234772;28;8811;-69
2023/04/21 08:19:20;;;;;;;;;3.50;3.50;;;;;;;;5225842;28;8819;-68
2023/04/21 08:21:51;;;;;;;;;3.33;3.33;;;;;;;;5228107;28;8810;-67
2023/04/21 08:24:41;;;;;;;;;3.50;3.50;;;;;;;;5227377;28;11438;-68
2023/04/21 08:27:12;;;;;;;;;3.75;3.75;;;;;;;;5226824;28;8816;-68
2023/04/21 08:29:42;;;;;;;;;4.00;4.00;;;;;;;;5210947;28;8769;-68
2023/04/21 08:32:37;;;;;;;;;4.00;4.00;;;;;;;;5228183;28;11467;-68
2023/04/21 08:35:26;;;;;;;;;2.25;2.25;;;;;;;;5228421;28;8809;-68
2023/04/21 08:37:57;;;;;;;;;12.50;12.50;;;;;;;;5227224;28;8898;-68
2023/04/21 08:40:34;;;;;;;;;6.00;6.00;;;;;;;;5229143;28;8940;-68
2023/04/21 08:43:24;;;;;;;;;3.50;3.50;;;;;;;;5227147;28;8789;-68
2023/04/21 08:45:56;;;;;;;;;2.50;2.50;;;;;;;;5228078;28;8828;-68
2023/04/21 08:48:28;;;;;;;;;4.00;4.00;;;;;;;;5226880;28;8982;-68
2023/04/21 08:51:00;;;;;;;;;4.00;4.00;;;;;;;;5236620;28;8795;-68
2023/04/21 08:53:32;;;;;;;;;5.50;5.50;;;;;;;;5229699;28;8793;-68
2023/04/21 08:56:03;;;;;;;;;8.75;8.75;;;;;;;;5233138;28;8864;-68
2023/04/21 08:58:53;;;;;;;;;4.00;4.00;;;;;;;;5238231;28;8771;-68
2023/04/21 09:01:24;;;;;;;;;4.75;4.75;;;;;;;;5257278;28;9032;-68
2023/04/21 09:04:14;;;;;;;;;4.50;4.50;;;;;;;;5269457;28;9483;-68
2023/04/21 09:06:45;;;;;;;;;2.50;2.50;;;;;;;;5209633;28;8840;-68
2023/04/21 09:09:16;;;;;;;;;3.00;3.00;;;;;;;;5226705;28;8786;-68
2023/04/21 09:11:55;;;;;;;;;6.50;6.50;;;;;;;;5238759;28;8819;-67
2023/04/21 09:14:45;;;;;;;;;3.75;3.75;;;;;;;;5248585;28;8759;-68
2023/04/21 09:17:16;;;;;;;;;5.00;5.00;;;;;;;;5249798;28;8796;-68
2023/04/21 09:19:48;;;;;;;;;5.00;5.00;;;;;;;;5267986;28;8926;-68
2023/04/21 09:22:19;;;;;;;;;6.75;6.75;;;;;;;;5268058;28;8784;-69
2023/04/21 09:24:56;;;;;;;;;4.50;4.50;;;;;;;;5265533;28;8784;-69
2023/04/21 09:27:27;;;;;;;;;5.25;5.25;;;;;;;;5227485;28;8802;-68
2023/04/21 09:30:03;;;;;;;;;5.67;5.67;;;;;;;;5228950;28;8881;-68
2023/04/21 09:32:55;;;;;;;;;5.50;5.50;;;;;;;;5244753;28;8937;-68
2023/04/21 09:35:32;;;;;;;;;6.00;5.00;;;;;;;;5228136;28;8803;-68
2023/04/21 09:38:21;;;;;;;;;4.75;4.75;;;;;;;;5235633;28;8919;-68
2023/04/21 09:40:56;;;;;;;;;4.50;4.50;;;;;;;;5225442;28;8797;-68
2023/04/21 09:43:27;;;;;;;;;2.50;2.50;;;;;;;;5207500;28;9565;-68
2023/04/21 09:46:00;;;;;;;;;3.25;3.25;;;;;;;;5225387;28;8824;-69
2023/04/21 09:48:33;;;;;;;;;5.25;5.25;;;;;;;;5225153;28;8789;-69
2023/04/21 09:51:05;;;;;;;;;3.50;3.50;;;;;;;;5237598;28;8783;-68
2023/04/21 09:53:57;;;;;;;;;6.75;5.75;;;;;;;;5243964;28;8815;-68
2023/04/21 09:56:48;;;;;;;;;4.25;4.25;;;;;;;;5245978;28;8834;-68
2023/04/21 09:59:23;;;;;;;;;5.00;5.00;;;;;;;;5225058;28;8870;-68
2023/04/21 10:01:56;;;;;;;;;5.00;5.00;;;;;;;;5223580;28;8818;-68
2023/04/21 10:04:27;;;;;;;;;9.00;8.50;;;;;;;;5224541;28;8801;-70
2023/04/21 10:06:59;;;;;;;;;4.25;4.25;;;;;;;;5224658;28;8817;-69
2023/04/21 10:09:32;;;;;;;;;2.50;2.50;;;;;;;;5207212;28;8802;-69
2023/04/21 10:12:03;;;;;;;;;3.00;3.00;;;;;;;;5225832;28;8831;-69
2023/04/21 10:14:35;;;;;;;;;3.25;3.25;;;;;;;;5223349;28;8845;-68
2023/04/21 10:17:07;;;;;;;;;4.75;4.75;;;;;;;;5206879;28;9432;-69
2023/04/21 10:19:46;;;;;;;;;3.50;3.50;;;;;;;;5208979;28;8875;-69
2023/04/21 10:22:27;;;;;;;;;3.75;3.75;;;;;;;;5224459;28;8833;-69
2023/04/21 10:25:00;;;;;;;;;4.00;4.00;;;;;;;;5223226;28;9508;-69
2023/04/21 10:27:50;;;;;;;;;14.00;14.00;;;;;;;;5223461;28;9039;-69
2023/04/21 10:30:40;;;;;;;;;5.00;5.00;;;;;;;;5223960;28;8832;-68
2023/04/21 10:33:29;;;;;;;;;3.00;3.00;;;;;;;;5224318;28;8789;-69
2023/04/21 10:36:02;;;;;;;;;4.50;4.50;;;;;;;;5224211;28;8859;-68
2023/04/21 10:38:42;;;;;;;;;3.00;3.00;;;;;;;;5224113;28;8813;-69
2023/04/21 10:41:29;;;;;;;;;2.00;2.00;;;;;;;;5238706;28;8844;-68
2023/04/21 10:44:18;;;;;;;;;4.00;4.00;;;;;;;;5217825;28;9648;-68
2023/04/21 10:46:51;;;;;;;;;5.00;5.00;;;;;;;;5225926;28;8806;-68
2023/04/21 10:49:23;;;;;;;;;2.50;2.50;;;;;;;;5224809;28;8789;-68
2023/04/21 10:51:57;;;;;;;;;2.00;2.00;;;;;;;;5224657;28;8772;-68
2023/04/21 10:54:30;;;;;;;;;4.25;4.25;;;;;;;;5207981;28;8818;-68
2023/04/21 10:57:04;;;;;;;;;2.25;2.25;;;;;;;;5208848;28;8792;-68
2023/04/21 10:59:35;;;;;;;;;1.75;1.75;;;;;;;;5224305;28;8809;-68
2023/04/21 11:02:07;;;;;;;;;3.25;3.25;;;;;;;;5225726;28;8778;-68
2023/04/21 11:04:43;;;;;;;;;3.50;3.50;;;;;;;;5224437;28;8766;-68
2023/04/21 11:07:18;;;;;;;;;2.50;2.00;;;;;;;;5229680;28;8807;-68
2023/04/21 11:10:10;;;;;;;;;4.75;4.75;;;;;;;;5230178;28;9526;-69
2023/04/21 11:12:41;;;;;;;;;8.00;8.00;;;;;;;;5211729;28;8851;-68
2023/04/21 11:15:14;;;;;;;;;5.75;5.75;;;;;;;;5223838;28;8778;-68
2023/04/21 11:17:45;;;;;;;;;1.75;1.75;;;;;;;;5232675;28;8792;-69
2023/04/21 11:20:16;;;;;;;;;3.00;3.00;;;;;;;;5266647;28;8811;-68
2023/04/21 11:22:50;;;;;;;;;3.00;3.00;;;;;;;;5242755;28;8831;-69
2023/04/21 11:25:22;;;;;;;;;1.75;1.75;;;;;;;;5226899;28;8891;-68
2023/04/21 11:27:54;;;;;;;;;1.50;1.50;;;;;;;;5224056;28;8805;-68
2023/04/21 11:30:32;;;;;;;;;3.50;3.50;;;;;;;;5226209;28;8795;-69
2023/04/21 11:33:04;;;;;;;;;2.00;2.00;;;;;;;;5235093;28;8904;-69
2023/04/21 11:35:39;;;;;;;;;2.25;2.25;;;;;;;;5225085;28;8932;-69
2023/04/21 11:38:35;;;;;;;;;4.25;4.25;;;;;;;;5245352;28;8886;-68
2023/04/21 11:41:08;;;;;;;;;4.25;4.25;;;;;;;;5228441;28;8775;-69
2023/04/21 11:43:39;;;;;;;;;2.00;2.00;;;;;;;;5244566;28;8775;-69
2023/04/21 11:46:22;;;;;;;;;0.75;0.75;;;;;;;;5244361;28;8787;-69
2023/04/21 11:49:01;;;;;;;;;3.50;3.50;;;;;;;;5245873;28;8739;-67
2023/04/21 11:51:50;;;;;;;;;2.75;2.75;;;;;;;;5264405;28;8769;-68
2023/04/21 11:54:23;;;;;;;;;3.25;3.25;;;;;;;;5266874;28;8804;-68
2023/04/21 11:56:54;;;;;;;;;1.50;1.50;;;;;;;;5266629;28;8781;-68
2023/04/21 11:59:25;;;;;;;;;3.00;3.00;;;;;;;;5249194;28;8884;-68
2023/04/21 12:02:25;;;;;;;;;5.25;5.25;;;;;;;;5265395;28;8792;-67
2023/04/21 12:05:01;;;;;;;;;4.00;4.00;;;;;;;;5265378;28;9533;-68
2023/04/21 12:07:37;;;;;;;;;2.00;2.00;;;;;;;;5267050;28;8792;-68
2023/04/21 12:10:28;;;;;;;;;2.50;2.50;;;;;;;;5262737;28;8779;-68
2023/04/21 12:12:59;;;;;;;;;0.75;0.75;;;;;;;;5245336;28;8787;-68
2023/04/21 12:15:30;;;;;;;;;6.00;6.00;;;;;;;;5248149;28;8795;-69
2023/04/21 12:18:01;;;;;;;;;3.00;3.00;;;;;;;;5249575;28;8794;-69
2023/04/21 12:20:32;;;;;;;;;5.00;4.50;;;;;;;;5232280;28;8779;-68
2023/04/21 12:23:04;;;;;;;;;2.00;2.00;;;;;;;;5227765;28;8916;-67
2023/04/21 12:25:53;;;;;;;;;3.00;3.00;;;;;;;;5227330;28;8852;-68
2023/04/21 12:28:25;;;;;;;;;2.50;2.50;;;;;;;;5221150;28;8810;-67
2023/04/21 12:30:56;;;;;;;;;2.00;2.00;;;;;;;;5238796;28;8803;-68
2023/04/21 12:33:27;;;;;;;;;2.00;2.00;;;;;;;;5240792;28;8831;-68
2023/04/21 12:35:59;;;;;;;;;2.00;2.00;;;;;;;;5239079;28;8859;-67
2023/04/21 12:38:30;;;;;;;;;4.00;4.00;;;;;;;;5239756;28;8944;-67
2023/04/21 12:41:01;;;;;;;;;2.50;2.50;;;;;;;;5242764;28;8819;-67
2023/04/21 12:43:32;;;;;;;;;5.75;5.75;;;;;;;;5248135;28;9554;-67
2023/04/21 12:46:03;;;;;;;;;7.75;7.75;;;;;;;;5236044;28;8829;-67
2023/04/21 12:48:34;;;;;;;;;4.00;4.00;;;;;;;;5241303;28;8811;-68
2023/04/21 12:51:05;;;;;;;;;6.00;6.00;;;;;;;;5231653;28;9610;-68
2023/04/21 12:53:37;;;;;;;;;3.50;3.50;;;;;;;;5242995;28;8801;-67
2023/04/21 12:56:08;;;;;;;;;3.00;3.00;;;;;;;;5235940;28;8902;-68
2023/04/21 12:58:41;;;;;;;;;6.00;6.00;;;;;;;;5247423;28;8795;-68
2023/04/21 13:01:14;;;;;;;;;7.25;7.25;;;;;;;;5245017;28;8827;-67
2023/04/21 13:03:45;;;;;;;;;2.00;2.00;;;;;;;;5231140;28;8801;-67
2023/04/21 13:06:16;;;;;;;;;6.75;6.75;;;;;;;;5227614;28;9548;-67
2023/04/21 13:08:47;;;;;;;;;6.50;5.75;;;;;;;;5230377;28;8922;-69
2023/04/21 13:11:18;;;;;;;;;4.75;4.75;;;;;;;;5240977;28;8821;-68
2023/04/21 13:13:50;;;;;;;;;2.00;2.00;;;;;;;;5226199;28;8797;-69
2023/04/21 13:16:39;;;;;;;;;4.00;4.00;;;;;;;;5227212;28;8821;-67
2023/04/21 13:19:10;;;;;;;;;1.75;1.75;;;;;;;;5237340;28;8819;-67
2023/04/21 13:21:59;;;;;;;;;2.00;2.00;;;;;;;;5240667;28;8836;-67
2023/04/21 13:24:48;;;;;;;;;4.75;4.75;;;;;;;;5250550;28;8829;-66
2023/04/21 13:27:19;;;;;;;;;4.00;4.00;;;;;;;;5227145;28;8817;-67
2023/04/21 13:29:51;;;;;;;;;2.25;2.25;;;;;;;;5239249;28;9633;-67
2023/04/21 13:32:22;;;;;;;;;2.00;2.00;;;;;;;;5233028;28;8873;-66
2023/04/21 13:34:53;;;;;;;;;0.25;0.25;;;;;;;;5231317;28;8841;-67
2023/04/21 13:37:24;;;;;;;;;4.75;4.75;;;;;;;;5244180;28;8867;-67
2023/04/21 13:39:55;;;;;;;;;3.25;3.25;;;;;;;;5229464;28;8817;-67
2023/04/21 13:42:27;;;;;;;;;6.00;6.00;;;;;;;;5227092;28;8799;-67
2023/04/21 13:44:58;;;;;;;;;5.00;5.00;;;;;;;;5232816;28;8841;-67
2023/04/21 13:47:30;;;;;;;;;3.75;3.75;;;;;;;;5233364;28;8801;-68
2023/04/21 13:50:02;;;;;;;;;2.00;2.00;;;;;;;;5207705;28;9595;-67
2023/04/21 13:52:36;;;;;;;;;4.75;3.75;;;;;;;;5224758;28;8944;-68
2023/04/21 13:55:07;;;;;;;;;4.33;4.33;;;;;;;;5208944;28;8940;-68
2023/04/21 13:57:38;;;;;;;;;5.00;5.00;;;;;;;;5245380;28;8806;-68
2023/04/21 14:00:10;;;;;;;;;5.67;5.67;;;;;;;;5226803;28;8809;-70
2023/04/21 14:02:41;;;;;;;;;3.50;3.50;;;;;;;;5223279;28;9031;-69
2023/04/21 14:05:13;;;;;;;;;4.25;4.25;;;;;;;;5233780;28;8802;-68
2023/04/21 14:07:44;;;;;;;;;6.50;6.50;;;;;;;;5227799;28;8789;-68
2023/04/21 14:10:15;;;;;;;;;10.75;10.75;;;;;;;;5228240;28;8876;-68
2023/04/21 14:12:47;;;;;;;;;13.00;13.00;;;;;;;;5245148;28;8791;-68
2023/04/21 14:15:18;;;;;;;;;7.75;7.75;;;;;;;;5240877;28;8814;-68
2023/04/21 14:17:49;;;;;;;;;8.00;7.75;;;;;;;;5230019;28;8807;-67
2023/04/21 14:20:21;;;;;;;;;14.00;11.67;;;;;;;;5232754;28;9500;-68
2023/04/21 14:22:52;;;;;;;;;8.00;8.00;;;;;;;;5219529;28;11486;-67
2023/04/21 14:25:23;;;;;;;;;2.00;2.00;;;;;;;;5218320;28;8809;-67
2023/04/21 14:27:54;;;;;;;;;5.00;5.00;;;;;;;;5240280;28;8934;-67
2023/04/21 14:30:25;;;;;;;;;5.00;5.00;;;;;;;;5230157;28;8803;-69
2023/04/21 14:32:57;;;;;;;;;8.75;8.75;;;;;;;;5243177;28;8929;-69
2023/04/21 14:35:46;;;;;;;;;12.00;11.50;;;;;;;;5223594;28;9579;-68
2023/04/21 14:38:17;;;;;;;;;10.25;10.00;;;;;;;;5237631;28;8809;-67
2023/04/21 14:41:07;;;;;;;;;4.75;4.75;;;;;;;;5235673;28;8814;-68
2023/04/21 14:43:38;;;;;;;;;5.00;4.75;;;;;;;;5228923;28;8864;-68
2023/04/21 14:46:27;;;;;;;;;9.00;9.00;;;;;;;;5229849;28;8801;-67
2023/04/21 14:48:58;;;;;;;;;7.00;7.00;;;;;;;;5225765;28;8802;-67
2023/04/21 14:51:30;;;;;;;;;10.00;10.00;;;;;;;;5230527;28;8775;-67
2023/04/21 14:54:20;;;;;;;;;11.20;11.20;;;;;;;;5235614;28;8884;-68
2023/04/21 14:56:51;;;;;;;;;14.33;14.33;;;;;;;;5224938;28;8826;-69
2023/04/21 14:59:42;;;;;;;;;6.75;6.75;;;;;;;;5210896;28;12254;-68
2023/04/21 15:02:13;;;;;;;;;15.75;15.75;;;;;;;;5224689;28;8808;-68
2023/04/21 15:04:44;;;;;;;;;8.00;8.00;;;;;;;;5223770;28;8773;-68
2023/04/21 15:07:15;;;;;;;;;7.25;7.25;;;;;;;;5207474;28;9521;-67
2023/04/21 15:09:47;;;;;;;;;12.75;12.50;;;;;;;;5225060;28;8894;-69
2023/04/21 15:12:37;;;;;;;;;17.50;17.50;;;;;;;;5224890;28;8824;-69
2023/04/21 15:15:09;;;;;;;;;8.00;8.00;;;;;;;;5224408;28;9557;-69
2023/04/21 15:17:40;;;;;;;;;8.50;8.50;;;;;;;;5226872;28;8859;-70
2023/04/21 15:20:12;;;;;;;;;5.50;5.50;;;;;;;;5236939;28;8805;-68
2023/04/21 15:23:01;;;;;;;;;7.50;7.50;;;;;;;;5223926;28;8792;-68
2023/04/21 15:25:32;;;;;;;;;5.00;5.00;;;;;;;;5226012;28;8825;-67